createdAt,value
2023-04-11T00:03:53.557Z,76.82
2023-04-11T00:07:04.858Z,76.89
2023-04-11T00:10:16.412Z,76.86
2023-04-11T00:13:27.725Z,76.88
2023-04-11T00:16:40.169Z,76.88
2023-04-11T00:19:53.430Z,76.90
2023-04-11T00:23:04.499Z,76.89
2023-04-11T00:26:23.394Z,76.89
2023-04-11T00:29:26.972Z,76.85
2023-04-11T00:32:37.943Z,76.80
2023-04-11T00:35:48.841Z,76.79
2023-04-11T00:39:01.551Z,76.79
2023-04-11T00:42:13.109Z,76.87
2023-04-11T00:45:18.152Z,76.93
2023-04-11T00:48:28.947Z,77.08
2023-04-11T00:51:39.877Z,77.20
2023-04-11T00:54:51.093Z,77.23
2023-04-11T00:58:02.561Z,77.09
2023-04-11T01:01:14.542Z,76.98
2023-04-11T01:04:26.349Z,76.84
2023-04-11T01:07:38.603Z,76.64
2023-04-11T01:10:49.325Z,76.59
2023-04-11T01:14:00.410Z,76.52
2023-04-11T01:17:12.769Z,76.47
2023-04-11T01:20:22.897Z,76.47
2023-04-11T01:23:34.612Z,76.49
2023-04-11T01:26:50.086Z,76.66
2023-04-11T01:30:01.081Z,76.75
2023-04-11T01:37:18.601Z,77.06
2023-04-11T01:40:30.092Z,77.11
2023-04-11T01:43:33.864Z,77.26
2023-04-11T01:46:45.486Z,77.32
2023-04-11T01:49:57.013Z,77.38
2023-04-11T01:53:03.150Z,77.58
2023-04-11T01:56:15.525Z,77.84
2023-04-11T01:59:45.324Z,77.98
2023-04-11T02:02:56.535Z,78.10
2023-04-11T02:06:21.198Z,78.25
2023-04-11T02:09:29.098Z,78.32
2023-04-11T02:12:40.326Z,78.36
2023-04-11T02:15:51.762Z,78.37
2023-04-11T02:19:06.282Z,78.53
2023-04-11T02:22:22.589Z,78.65
2023-04-11T02:25:33.896Z,78.71
2023-04-11T02:28:39.714Z,78.70
2023-04-11T02:31:51.406Z,78.68
2023-04-11T02:35:03.159Z,78.68
2023-04-11T02:38:14.243Z,78.75
2023-04-11T02:41:17.781Z,78.68
2023-04-11T02:44:31.293Z,78.65
2023-04-11T02:47:45.138Z,78.50
2023-04-11T02:50:56.621Z,78.59
2023-04-11T02:54:07.890Z,78.71
2023-04-11T02:57:19.591Z,78.71
2023-04-11T03:00:31.703Z,78.57
2023-04-11T03:03:42.546Z,78.69
2023-04-11T03:06:53.963Z,78.84
2023-04-11T03:10:05.335Z,78.78
2023-04-11T03:13:16.261Z,78.90
2023-04-11T03:16:28.432Z,78.92
2023-04-11T03:19:39.727Z,79.00
2023-04-11T03:22:44.422Z,79.07
2023-04-11T03:25:55.446Z,79.03
2023-04-11T03:29:06.296Z,78.87
2023-04-11T03:32:17.058Z,78.87
2023-04-11T03:35:28.291Z,78.65
2023-04-11T03:38:39.114Z,78.73
2023-04-11T03:41:50.052Z,78.76
2023-04-11T03:45:01.313Z,78.71
2023-04-11T03:48:12.224Z,78.71
2023-04-11T03:51:32.863Z,78.58
2023-04-11T03:54:46.362Z,78.61
2023-04-11T03:57:58.501Z,78.58
2023-04-11T04:01:09.570Z,78.50
2023-04-11T04:04:14.293Z,78.44
2023-04-11T04:07:25.900Z,78.40
2023-04-11T04:10:36.853Z,78.18
2023-04-11T04:13:47.595Z,78.00
2023-04-11T04:16:58.781Z,77.87
2023-04-11T04:20:11.896Z,77.75
2023-04-11T04:23:24.041Z,77.70
2023-04-11T04:26:33.612Z,77.65
2023-04-11T04:29:50.152Z,77.64
2023-04-11T04:33:04.962Z,77.59
2023-04-11T04:36:18.102Z,77.71
2023-04-11T04:39:30.336Z,77.93
2023-04-11T04:42:43.308Z,77.98
2023-04-11T04:45:54.120Z,78.22
2023-04-11T04:49:06.762Z,78.21
2023-04-11T04:52:18.074Z,78.09
2023-04-11T04:55:29.062Z,77.89
2023-04-11T04:58:39.857Z,77.83
2023-04-11T05:01:52.082Z,77.78
2023-04-11T05:05:04.592Z,77.66
2023-04-11T05:08:08.210Z,77.60
2023-04-11T05:11:23.334Z,77.60
2023-04-11T05:14:34.205Z,77.46
2023-04-11T05:17:45.067Z,77.43
2023-04-11T05:20:56.088Z,77.52
2023-04-11T05:24:07.257Z,77.61
2023-04-11T05:27:19.079Z,77.55
2023-04-11T05:30:30.487Z,77.72
2023-04-11T05:33:42.401Z,77.88
2023-04-11T05:36:53.488Z,77.86
2023-04-11T05:40:08.172Z,77.88
2023-04-11T05:43:19.779Z,77.91
2023-04-11T05:46:31.381Z,77.91
2023-04-11T05:49:45.402Z,77.92
2023-04-11T05:52:56.242Z,77.91
2023-04-11T05:56:10.609Z,77.87
2023-04-11T05:59:27.009Z,77.82
2023-04-11T06:02:44.904Z,77.82
2023-04-11T06:05:57.549Z,77.75
2023-04-11T06:09:01.156Z,77.73
2023-04-11T06:12:02.505Z,77.67
2023-04-11T06:15:14.103Z,77.70
2023-04-11T06:18:25.494Z,77.58
2023-04-11T06:21:36.989Z,77.51
2023-04-11T06:24:38.099Z,77.50
2023-04-11T06:27:49.490Z,77.50
2023-04-11T06:31:00.337Z,77.55
2023-04-11T06:34:11.838Z,77.84
2023-04-11T06:37:18.092Z,77.82
2023-04-11T06:40:23.710Z,77.50
2023-04-11T06:43:34.521Z,77.21
2023-04-11T06:46:38.296Z,76.94
2023-04-11T06:49:50.264Z,76.62
2023-04-11T06:53:02.357Z,76.24
2023-04-11T06:56:14.054Z,75.95
2023-04-11T06:59:27.489Z,75.66
2023-04-11T07:02:39.482Z,75.31
2023-04-11T07:05:51.830Z,75.03
2023-04-11T07:09:02.860Z,74.77
2023-04-11T07:12:14.157Z,74.53
2023-04-11T07:15:25.505Z,74.30
2023-04-11T07:18:36.598Z,73.88
2023-04-11T07:21:38.688Z,73.51
2023-04-11T07:24:52.487Z,73.13
2023-04-11T07:28:07.727Z,72.78
2023-04-11T07:31:21.768Z,72.58
2023-04-11T07:34:33.407Z,72.33
2023-04-11T07:37:43.235Z,71.77
2023-04-11T07:40:47.844Z,71.28
2023-04-11T07:43:58.801Z,70.98
2023-04-11T07:47:00.524Z,70.33
2023-04-11T07:50:12.160Z,69.69
2023-04-11T07:53:23.416Z,68.56
2023-04-11T07:56:14.585Z,67.97
2023-04-11T07:59:05.500Z,66.86
2023-04-11T08:02:02.069Z,66.37
2023-04-11T08:04:57.434Z,65.87
2023-04-11T08:07:53.438Z,65.31
2023-04-11T08:10:44.122Z,64.76
2023-04-11T08:13:43.490Z,64.48
2023-04-11T08:16:43.767Z,64.55
2023-04-11T08:19:44.910Z,64.00
2023-04-11T08:22:36.386Z,63.57
2023-04-11T08:25:23.932Z,63.54
2023-04-11T08:28:24.108Z,63.27
2023-04-11T08:31:18.252Z,62.67
2023-04-11T08:34:09.212Z,61.49
2023-04-11T08:36:59.667Z,61.11
2023-04-11T08:39:50.370Z,60.57
2023-04-11T08:42:40.906Z,58.39
2023-04-11T08:45:34.510Z,57.68
2023-04-11T08:48:26.095Z,58.25
2023-04-11T08:51:32.662Z,58.88
2023-04-11T08:54:23.172Z,59.31
2023-04-11T08:57:26.103Z,59.24
2023-04-11T09:00:25.013Z,59.55
2023-04-11T09:03:19.030Z,59.43
2023-04-11T09:06:31.042Z,59.73
2023-04-11T09:09:33.011Z,59.98
2023-04-11T09:12:30.041Z,60.22
2023-04-11T09:15:26.473Z,60.57
2023-04-11T09:18:36.774Z,60.59
2023-04-11T09:21:49.652Z,61.12
2023-04-11T09:24:43.153Z,61.39
2023-04-11T09:27:33.723Z,61.58
2023-04-11T09:30:50.916Z,61.71
2023-04-11T09:33:56.041Z,62.45
2023-04-11T09:36:57.614Z,62.88
2023-04-11T09:39:58.040Z,63.31
2023-04-11T09:42:59.524Z,63.52
2023-04-11T09:46:18.658Z,63.45
2023-04-11T09:49:23.014Z,63.20
2023-04-11T09:52:24.974Z,63.24
2023-04-11T09:55:27.281Z,63.44
2023-04-11T09:58:38.738Z,63.65
2023-04-11T10:01:31.941Z,63.34
2023-04-11T10:04:42.248Z,63.03
2023-04-11T10:07:36.880Z,63.12
2023-04-11T10:10:38.252Z,63.35
2023-04-11T10:13:50.375Z,63.13
2023-04-11T10:17:00.718Z,62.94
2023-04-11T10:20:30.490Z,63.27
2023-04-11T10:23:21.210Z,63.58
2023-04-11T10:26:47.064Z,64.22
2023-04-11T10:29:57.919Z,64.84
2023-04-11T10:33:16.190Z,65.38
2023-04-11T10:36:18.526Z,65.51
2023-04-11T10:39:19.337Z,65.65
2023-04-11T10:42:29.437Z,65.40
2023-04-11T10:45:24.678Z,64.95
2023-04-11T10:48:26.468Z,64.75
2023-04-11T10:51:37.211Z,64.68
2023-04-11T10:54:48.341Z,64.83
2023-04-11T10:58:05.929Z,65.16
2023-04-11T11:01:37.388Z,65.64
2023-04-11T11:04:49.019Z,65.86
2023-04-11T11:07:47.101Z,66.06
2023-04-11T11:11:01.276Z,66.40
2023-04-11T11:13:57.226Z,66.74
2023-04-11T11:17:01.194Z,67.21
2023-04-11T11:20:01.926Z,67.62
2023-04-11T11:23:03.059Z,68.33
2023-04-11T11:25:57.680Z,68.81
2023-04-11T11:29:07.249Z,69.20
2023-04-11T11:32:09.299Z,69.56
2023-04-11T11:35:00.512Z,69.95
2023-04-11T11:38:11.533Z,70.17
2023-04-11T11:41:17.170Z,70.37
2023-04-11T11:44:27.488Z,70.54
2023-04-11T11:47:28.490Z,70.62
2023-04-11T11:50:39.678Z,70.67
2023-04-11T11:54:05.220Z,70.71
2023-04-11T11:57:08.849Z,70.36
2023-04-11T12:00:01.945Z,70.33
2023-04-11T12:02:59.790Z,70.22
2023-04-11T12:05:58.436Z,70.07
2023-04-11T12:09:03.671Z,69.73
2023-04-11T12:11:56.410Z,69.46
2023-04-11T12:14:57.167Z,69.20
2023-04-11T12:17:51.548Z,69.07
2023-04-11T12:20:51.747Z,68.69
2023-04-11T12:23:55.656Z,68.65
2023-04-11T12:27:07.022Z,68.79
2023-04-11T12:30:04.321Z,68.89
2023-04-11T12:32:55.238Z,68.92
2023-04-11T12:35:46.209Z,68.92
2023-04-11T12:38:36.950Z,69.16
2023-04-11T12:41:48.097Z,69.23
2023-04-11T12:44:44.138Z,69.25
2023-04-11T12:47:48.086Z,69.24
2023-04-11T12:50:43.421Z,69.37
2023-04-11T12:53:44.656Z,69.68
2023-04-11T12:56:44.402Z,69.56
2023-04-11T12:59:55.258Z,69.71
2023-04-11T13:02:59.758Z,69.89
2023-04-11T13:05:59.492Z,69.83
2023-04-11T13:08:52.912Z,70.11
2023-04-11T13:12:03.889Z,70.68
2023-04-11T13:15:05.039Z,71.06
2023-04-11T13:18:18.260Z,71.21
2023-04-11T13:21:29.173Z,71.43
2023-04-11T13:24:20.021Z,71.80
2023-04-11T13:27:20.604Z,71.97
2023-04-11T13:30:31.425Z,72.13
2023-04-11T13:33:41.222Z,72.42
2023-04-11T13:36:35.899Z,72.48
2023-04-11T13:39:35.653Z,72.73
2023-04-11T13:42:28.725Z,72.53
2023-04-11T13:45:22.276Z,71.32
2023-04-11T13:48:36.308Z,70.66
2023-04-11T13:51:52.604Z,69.97
2023-04-11T13:55:03.511Z,70.04
2023-04-11T13:58:07.495Z,70.28
2023-04-11T14:01:00.428Z,70.24
2023-04-11T14:03:53.828Z,69.91
2023-04-11T14:06:57.280Z,69.80
2023-04-11T14:09:48.230Z,70.14
2023-04-11T14:12:59.500Z,70.46
2023-04-11T14:16:07.305Z,71.21
2023-04-11T14:18:58.915Z,72.53
2023-04-11T14:21:52.204Z,73.43
2023-04-11T14:24:42.708Z,74.05
2023-04-11T14:27:53.507Z,74.50
2023-04-11T14:31:04.341Z,74.92
2023-04-11T14:33:57.611Z,75.34
2023-04-11T14:36:52.759Z,75.45
2023-04-11T14:39:43.290Z,75.63
2023-04-11T14:42:49.744Z,75.88
2023-04-11T14:46:00.802Z,75.81
2023-04-11T14:48:51.530Z,76.00
2023-04-11T14:51:42.332Z,76.10
2023-04-11T14:54:55.248Z,76.11
2023-04-11T14:58:00.479Z,76.02
2023-04-11T15:00:58.755Z,75.67
2023-04-11T15:04:02.176Z,75.68
2023-04-11T15:07:00.644Z,75.80
2023-04-11T15:10:01.629Z,75.89
2023-04-11T15:13:05.224Z,75.66
2023-04-11T15:16:18.606Z,75.92
2023-04-11T15:19:26.559Z,76.59
2023-04-11T15:22:39.493Z,77.00
2023-04-11T15:25:41.563Z,77.69
2023-04-11T15:28:36.040Z,78.19
2023-04-11T15:31:47.708Z,78.30
2023-04-11T15:34:58.465Z,78.33
2023-04-11T15:38:09.202Z,78.49
2023-04-11T15:41:09.163Z,78.96
2023-04-11T15:44:02.127Z,79.37
2023-04-11T15:47:13.125Z,79.54
2023-04-11T15:50:09.942Z,79.90
2023-04-11T15:53:13.724Z,80.24
2023-04-11T15:56:18.979Z,80.57
2023-04-11T15:59:30.961Z,81.18
2023-04-11T16:02:21.675Z,81.65
2023-04-11T16:05:32.946Z,82.06
2023-04-11T16:08:43.822Z,82.65
2023-04-11T16:11:49.782Z,83.38
2023-04-11T16:14:46.531Z,84.21
2023-04-11T16:17:48.187Z,85.00
2023-04-11T16:21:33.553Z,85.06
2023-04-11T16:24:26.917Z,85.12
2023-04-11T16:27:26.826Z,85.14
2023-04-11T16:30:29.449Z,85.31
2023-04-11T16:33:31.193Z,85.25
2023-04-11T16:36:27.635Z,85.20
2023-04-11T16:39:30.888Z,85.32
2023-04-11T16:42:31.684Z,85.51
2023-04-11T16:45:22.580Z,85.77
2023-04-11T16:48:13.043Z,85.93
2023-04-11T16:51:03.636Z,86.14
2023-04-11T16:54:15.225Z,85.93
2023-04-11T16:57:05.761Z,85.79
2023-04-11T17:00:20.501Z,85.90
2023-04-11T17:03:11.111Z,86.42
2023-04-11T17:06:12.946Z,86.90
2023-04-11T17:09:06.639Z,85.73
2023-04-11T17:12:18.049Z,85.46
2023-04-11T17:15:21.942Z,85.84
2023-04-11T17:18:32.789Z,86.12
2023-04-11T17:21:43.906Z,85.87
2023-04-11T17:24:56.333Z,85.91
2023-04-11T17:28:07.146Z,86.20
2023-04-11T17:31:18.944Z,86.23
2023-04-11T17:34:26.628Z,86.82
2023-04-11T17:37:37.709Z,87.18
2023-04-11T17:40:48.465Z,87.74
2023-04-11T17:43:59.779Z,88.23
2023-04-11T17:47:00.922Z,88.45
2023-04-11T17:50:13.274Z,88.74
2023-04-11T17:53:24.052Z,89.11
2023-04-11T17:56:34.744Z,88.92
2023-04-11T17:59:39.009Z,88.97
2023-04-11T18:02:50.605Z,88.96
2023-04-11T18:05:52.554Z,88.99
2023-04-11T18:08:56.370Z,89.01
2023-04-11T18:12:07.236Z,89.20
2023-04-11T18:15:13.147Z,89.10
2023-04-11T18:18:23.960Z,89.08
2023-04-11T18:21:27.547Z,89.00
2023-04-11T18:24:38.344Z,89.15
2023-04-11T18:27:49.775Z,89.30
2023-04-11T18:31:00.540Z,89.54
2023-04-11T18:34:12.013Z,89.70
2023-04-11T18:37:23.857Z,89.88
2023-04-11T18:40:26.711Z,90.02
2023-04-11T18:43:38.741Z,90.01
2023-04-11T18:46:42.846Z,90.07
2023-04-11T18:49:54.184Z,90.09
2023-04-11T18:52:53.943Z,90.17
2023-04-11T18:56:08.055Z,90.12
2023-04-11T18:59:18.848Z,89.94
2023-04-11T19:02:30.459Z,89.85
2023-04-11T19:05:42.260Z,89.66
2023-04-11T19:08:43.960Z,89.54
2023-04-11T19:11:47.205Z,89.30
2023-04-11T19:14:58.032Z,89.02
2023-04-11T19:18:10.645Z,88.92
2023-04-11T19:21:11.979Z,88.90
2023-04-11T19:24:22.720Z,89.00
2023-04-11T19:27:23.891Z,89.06
2023-04-11T19:30:35.250Z,88.94
2023-04-11T19:33:46.405Z,88.56
2023-04-11T19:36:57.180Z,88.05
2023-04-11T19:40:11.100Z,87.43
2023-04-11T19:43:22.338Z,87.38
2023-04-11T19:46:33.283Z,87.50
2023-04-11T19:49:44.776Z,87.60
2023-04-11T19:52:56.975Z,87.76
2023-04-11T19:56:10.509Z,87.85
2023-04-11T19:59:21.118Z,87.85
2023-04-11T20:02:32.049Z,87.85
2023-04-11T20:05:43.186Z,87.88
2023-04-11T20:08:54.943Z,87.88
2023-04-11T20:11:57.381Z,87.95
2023-04-11T20:14:52.683Z,87.90
2023-04-11T20:18:03.733Z,87.91
2023-04-11T20:21:15.485Z,87.90
2023-04-11T20:24:26.324Z,87.64
2023-04-11T20:27:37.265Z,87.38
2023-04-11T20:30:42.160Z,87.26
2023-04-11T20:33:53.506Z,87.21
2023-04-11T20:37:04.862Z,87.09
2023-04-11T20:40:16.716Z,87.13
2023-04-11T20:43:27.515Z,86.77
2023-04-11T20:46:40.018Z,86.42
2023-04-11T20:49:45.837Z,86.14
2023-04-11T20:52:56.623Z,85.93
2023-04-11T20:56:10.436Z,85.61
2023-04-11T20:59:22.105Z,85.56
2023-04-11T21:02:35.185Z,85.50
2023-04-11T21:05:47.299Z,85.42
2023-04-11T21:08:58.739Z,85.13
2023-04-11T21:12:10.481Z,84.91
2023-04-11T21:15:14.249Z,84.20
2023-04-11T21:18:25.314Z,83.76
2023-04-11T21:21:37.866Z,83.88
2023-04-11T21:24:48.769Z,84.23
2023-04-11T21:28:00.537Z,84.43
2023-04-11T21:31:11.477Z,84.64
2023-04-11T21:34:22.623Z,84.74
2023-04-11T21:37:34.003Z,84.67
2023-04-11T21:40:45.613Z,84.45
2023-04-11T21:43:57.614Z,84.04
2023-04-11T21:47:08.754Z,83.93
2023-04-11T21:50:20.042Z,83.75
2023-04-11T21:53:31.116Z,83.75
2023-04-11T21:56:45.285Z,83.84
2023-04-11T21:59:57.167Z,83.93
2023-04-11T22:03:03.800Z,83.91
2023-04-11T22:06:19.369Z,83.93
2023-04-11T22:09:30.692Z,84.12
2023-04-11T22:12:42.253Z,84.43
2023-04-11T22:16:05.679Z,84.67
2023-04-11T22:19:18.168Z,84.59
2023-04-11T22:22:30.534Z,84.51
2023-04-11T22:27:00.995Z,84.46
2023-04-11T22:29:18.393Z,84.49
2023-04-11T22:32:22.027Z,84.40
2023-04-11T22:35:35.251Z,84.15
2023-04-11T22:38:46.475Z,83.94
2023-04-11T22:41:57.337Z,83.83
2023-04-11T22:45:09.622Z,83.56
2023-04-11T22:48:06.414Z,83.14
2023-04-11T22:51:17.190Z,82.73
2023-04-11T22:54:19.555Z,82.26
2023-04-11T22:57:30.484Z,82.17
2023-04-11T23:00:43.493Z,82.08
2023-04-11T23:03:45.670Z,81.92
2023-04-11T23:06:56.473Z,81.79
2023-04-11T23:10:14.038Z,81.77
2023-04-11T23:13:24.867Z,81.64
2023-04-11T23:16:35.910Z,81.54
2023-04-11T23:19:47.291Z,81.44
2023-04-11T23:22:58.592Z,81.30
2023-04-11T23:26:11.464Z,81.38
2023-04-11T23:29:22.437Z,81.43
2023-04-11T23:32:33.469Z,81.52
2023-04-11T23:35:44.359Z,81.72
2023-04-11T23:38:55.285Z,81.74
2023-04-11T23:42:07.470Z,81.84
2023-04-11T23:45:22.679Z,81.95
2023-04-11T23:48:33.971Z,82.02
2023-04-11T23:51:44.891Z,82.21
2023-04-11T23:54:56.376Z,82.42
2023-04-11T23:58:07.375Z,82.58
